LTBG

Details ICAO LTBG (BDM)
Name BANDIRMA
Region Turkey
Timezone Europe/Istanbul (UTC+3.0)
Plans Departing 10
Arriving 14
Stats Elevation 170 ft / 52 m (AMSL)
Location 40.318196° 27.977732°
Runways 1
Magnetic Variation 5.283° E
Sunrise 2018-05-24 02:46:26 UTC / 2018-05-24 05:46:26 Local
Sunset 2018-05-24 17:26:17 UTC / 2018-05-24 20:26:17 Local
Advertisement - Login to hide

Runways

ID Width Length Bearing (true) Bearing (mag) Surface Threshold Offset Overrun Length
18 147 ft / 45 m 9,882 ft / 3,012 m 181.11° 175.83° Asphalt 0 ft / 0 m 486 ft / 148 m
36 147 ft / 45 m 9,882 ft / 3,012 m 1.11° 355.83° Asphalt 0 ft / 0 m 770 ft / 235 m

Map

Weather


0- 5 10 15 20 25 30 35+ Temperature / ° C

Clouds and Precipitation
Forecast for 2018-05-24 06:00 UTC. Updated 3 hours ago

Ground ~20,000 ft ~40,000 ft Winds

METAR

LTBG 240810Z 02009KT 340V050 9999 SCT020 BKN030 20/18 Q1013 RESHRA NOSIG RMK RWY18 01011KT

TAF

Not found

Frequencies

Recorded 128.35 MHz INFO
Tower 122.10 MHz TWR
Ground 121.95 MHz GND
Approach 122.10 MHz APP
Warning: Do not use this data for real-world aviation or navigation. No guarantee of current accuracy is given.